Flight Track Log - Related Links

Times and Time Zones

All times are in EDT time to prevent confusion due to time zone crossing. See the N75ZM flight status page for this flight to view local times or setup timezone preferences in your user account.

Time Position Orientation Groundspeed Altitude Reporting Facility
EDT Latitude Longitude Course Direction KTS MPH feet Rate Location/Type
Thu 10:25:00 AM 35.2843 -85.0956 12° North  Level FlightAware Approximate
Thu 10:26:00 AM 35.3278 -85.0847 12° North  Level FlightAware Approximate
Thu 10:27:00 AM 35.3732 -85.0754 North  Level Estimated
Thu 10:28:00 AM 35.4185 -85.0662 North  Level Estimated
Thu 10:29:00 AM 35.4639 -85.0569 North  Level Estimated
Thu 10:30:00 AM 35.5092 -85.0476 North  Level Estimated
Thu 10:31:00 AM 35.5546 -85.0383 North  Level Estimated
Thu 10:32:00 AM 35.5999 -85.0290 North  Level Estimated
Thu 10:33:00 AM 35.6453 -85.0196 North  Level Estimated
Thu 10:34:00 AM 35.6906 -85.0103 North  Level Estimated
Thu 10:35:00 AM 35.7360 -85.0009 10° North  Level Estimated
Thu 10:36:00 AM 35.7813 -84.9916 10° North  Level Estimated
Thu 10:37:00 AM 35.8267 -84.9822 10° North  Level Estimated
Thu 10:38:00 AM 35.8720 -84.9728 10° North  Level Estimated
Thu 10:39:00 AM 35.9174 -84.9634 10° North  Level Estimated
Thu 10:40:00 AM 35.9627 -84.9540 10° North  Level Estimated
Thu 10:41:00 AM 36.0081 -84.9446 10° North  Level Estimated
Thu 10:42:00 AM 36.0534 -84.9352 10° North  Level Estimated
Thu 10:43:00 AM 36.0988 -84.9257 10° North  Level Estimated
Thu 10:44:00 AM 36.1441 -84.9163 10° North  Level Estimated
Thu 10:45:00 AM 36.1895 -84.9068 10° North  Level Estimated
Thu 10:46:00 AM 36.2348 -84.8973 10° North  Level Estimated
Thu 10:47:00 AM 36.2802 -84.8879 10° North  Level Estimated
Thu 10:48:00 AM 36.3255 -84.8784 10° North  Level Estimated
Thu 10:49:00 AM 36.3708 -84.8689 10° North  Level Estimated
Thu 10:50:00 AM 36.4162 -84.8594 10° North  Level Estimated
Thu 10:51:00 AM 36.4615 -84.8498 10° North  Level Estimated
Thu 10:52:00 AM 36.5069 -84.8403 10° North  Level Estimated
Thu 10:52:22 AM 35.9125 -83.8944 10° North 176 203 9,200  Level Indianapolis Center
Thu 10:53:00 AM 36.5522 -84.8307 10° North  Level Estimated
Thu 10:53:24 AM 35.9586 -83.8947 360° North 169 194 9,200  Level Indianapolis Center
Thu 10:54:00 AM 36.5975 -84.8212 10° North  Level Estimated
Thu 10:54:26 AM 36.0047 -83.8900 North 167 192 9,100  Level Indianapolis Center
Thu 10:55:00 AM 36.6429 -84.8116 10° North  Level Estimated
Thu 10:55:27 AM 36.0511 -83.8883 North 167 192 9,100  Level Indianapolis Center
Thu 10:56:00 AM 36.6882 -84.8020 10° North  Level Estimated
Thu 10:56:29 AM 36.0978 -83.8861 North 167 192 9,100  Level Indianapolis Center
Thu 10:57:00 AM 36.7335 -84.7924 10° North  Level Estimated
Thu 10:57:04 AM 36.1269 -83.8869 359° North 171 197 9,100  Level Atlanta Center
Thu 10:58:04 AM 36.1708 -83.8844 North 165 190 9,100  Level Atlanta Center
Thu 10:59:04 AM 36.2189 -83.8842 360° North 165 190 9,100  Level Atlanta Center
Thu 10:59:34 AM 36.2478 -83.8794 North 169 194 9,100  Level Indianapolis Center
Thu 11:00:35 AM 36.2942 -83.8756 North 168 193 9,100  Level Indianapolis Center
Thu 11:01:37 AM 36.3411 -83.8725 North 168 193 9,100  Level Indianapolis Center
Thu 11:02:39 AM 36.3878 -83.8703 North 168 193 9,100  Level Indianapolis Center
Thu 11:03:40 AM 36.4378 -83.8686 North 170 196 9,100  Level Indianapolis Center
Thu 11:04:42 AM 36.4828 -83.8647 North 170 196 9,100  Level Indianapolis Center
Thu 11:05:43 AM 36.5333 -83.8633 North 171 197 9,100  Level Indianapolis Center
Thu 11:06:45 AM 36.5892 -83.8594 North 172 198 9,100  Level Indianapolis Center
Thu 11:07:47 AM 36.6375 -83.8575 North 173 199 9,100  Level Indianapolis Center
Thu 11:08:48 AM 36.6861 -83.8553 North 173 199 9,100  Level Indianapolis Center
Thu 11:09:50 AM 36.7350 -83.8533 North 174 200 9,100  Level Indianapolis Center
Thu 11:10:51 AM 36.7819 -83.8500 North 172 198 9,100  Level Indianapolis Center
Thu 11:11:53 AM 36.8311 -83.8475 North 174 200 9,100  Level Indianapolis Center
Thu 11:12:55 AM 36.8797 -83.8453 North 174 200 9,100  Level Indianapolis Center
Thu 11:13:56 AM 36.9281 -83.8417 North 174 200 9,100  Level Indianapolis Center
Thu 11:14:58 AM 36.9839 -83.8386 North 171 197 9,100  Level Indianapolis Center
Thu 11:16:00 AM 37.0319 -83.8367 North 171 197 9,100  Level Indianapolis Center
Thu 11:17:01 AM 37.0797 -83.8342 North 171 197 9,100  Level Indianapolis Center
Thu 11:18:03 AM 37.1294 -83.8317 North 175 201 9,100  Level Indianapolis Center
Thu 11:19:05 AM 37.1772 -83.8303 North 172 198 9,100  Level Indianapolis Center
Thu 11:20:06 AM 37.2253 -83.8267 North 172 198 9,100  Level Indianapolis Center
Thu 11:21:08 AM 37.2733 -83.8239 North 173 199 9,100  Level Indianapolis Center
Thu 11:22:10 AM 37.3317 -83.8206 North 177 204 9,100  Level Indianapolis Center
Thu 11:23:11 AM 37.3789 -83.8172 North 173 199 9,100  Level Indianapolis Center
Thu 11:24:13 AM 37.4264 -83.8156 North 170 196 9,100  Level Indianapolis Center
Thu 11:25:15 AM 37.4750 -83.8122 North 173 199 9,100  Level Indianapolis Center
Thu 11:26:17 AM 37.5219 -83.8106 North 169 194 9,100  Level Indianapolis Center
Thu 11:27:18 AM 37.5703 -83.8072 North 172 198 9,100  Level Indianapolis Center
Thu 11:28:20 AM 37.6189 -83.8053 North 173 199 9,100  Level Indianapolis Center
Thu 11:29:22 AM 37.6744 -83.8019 North 171 197 9,100  Level Indianapolis Center
Thu 11:30:23 AM 37.7236 -83.7997 North 174 200 9,100  Level Indianapolis Center
Thu 11:31:25 AM 37.7711 -83.7961 North 171 197 9,100  Level Indianapolis Center
Thu 11:32:27 AM 37.8178 -83.7950 North 168 193 9,100  Level Indianapolis Center
Thu 11:33:28 AM 37.8647 -83.7919 North 168 193 9,100  Level Indianapolis Center
Thu 11:34:30 AM 37.9114 -83.7881 North 167 192 9,100  Level Indianapolis Center
Thu 11:35:32 AM 37.9589 -83.7858 North 169 194 9,100  Level Indianapolis Center
Thu 11:36:33 AM 38.0133 -83.7828 North 168 193 9,100  Level Indianapolis Center
Thu 11:37:35 AM 38.0608 -83.7811 North 169 194 9,100  Level Indianapolis Center
Thu 11:38:37 AM 38.1075 -83.7794 North 168 193 9,100  Level Indianapolis Center
Thu 11:39:38 AM 38.1567 -83.7728 North 173 199 9,100  Level Indianapolis Center
Thu 11:40:40 AM 38.2042 -83.7703 North 172 198 9,100  Level Indianapolis Center
Thu 11:41:42 AM 38.2519 -83.7689 North 171 197 9,100  Level Indianapolis Center
Thu 11:42:43 AM 38.2997 -83.7656 North 171 197 9,100  Level Indianapolis Center
Thu 11:43:45 AM 38.3539 -83.7611 North 169 194 9,100  Level Indianapolis Center
Thu 11:44:47 AM 38.3994 -83.7608 360° North 165 190 9,100  Level Indianapolis Center
Thu 11:45:48 AM 38.4453 -83.7572 North 164 189 9,100  Level Indianapolis Center
Thu 11:46:50 AM 38.4906 -83.7547 North 163 188 9,100  Level Indianapolis Center
Thu 11:47:52 AM 38.5347 -83.7528 North 160 184 9,100  Level Indianapolis Center
Thu 11:48:53 AM 38.5794 -83.7494 North 160 184 9,100 49 Level Indianapolis Center
Thu 11:49:55 AM 38.6244 -83.7467 North 161 185 9,200  Climbing Indianapolis Center
Thu 11:50:56 AM 38.6769 -83.7433 North 161 185 9,100 -49 Descending Indianapolis Center
Thu 11:51:58 AM 38.7203 -83.7564 347° North 161 185 9,100  Level Indianapolis Center
Thu 11:53:00 AM 38.7631 -83.7694 347° North 158 182 9,100  Level Indianapolis Center
Thu 11:54:01 AM 38.8075 -83.7778 352° North 160 184 9,100 49 Level Indianapolis Center
Thu 11:55:03 AM 38.8506 -83.7847 353° North 158 182 9,200 48 Climbing Indianapolis Center
Thu 11:56:05 AM 38.8956 -83.7822 North 159 183 9,200 -49 Level Indianapolis Center
Thu 11:57:06 AM 38.9428 -83.7797 North 160 184 9,100 -49 Descending Indianapolis Center
Thu 11:58:08 AM 38.9864 -83.7767 North 158 182 9,100  Level Indianapolis Center
Thu 11:58:41 AM 39.0147 -83.7756 North 166 191 9,100  Level Indianapolis Center
Thu 11:59:36 AM 39.0547 -83.7742 North 160 184 9,100 67 Level Indianapolis Center
Thu 12:00:11 PM 39.0772 -83.7703 North 163 188 9,200 -62 Climbing Indianapolis Center
Thu 12:01:13 PM 39.1222 -83.7669 North 162 186 9,000 -98 Descending Indianapolis Center
Thu 12:02:14 PM 39.1664 -83.7636 North 160 184 9,000  Level Indianapolis Center
Thu 12:03:16 PM 39.2219 -83.7608 North 164 189 9,000  Level Indianapolis Center
Thu 12:04:17 PM 39.2683 -83.7569 North 166 191 9,000 49 Level Indianapolis Center
Thu 12:05:19 PM 39.3144 -83.7506 North 166 191 9,100  Climbing Indianapolis Center
Thu 12:06:20 PM 39.3600 -83.7475 North 166 191 9,000  Descending Indianapolis Center
Thu 12:07:22 PM 39.4053 -83.7464 North 163 188 9,100 44 Climbing Indianapolis Center
Thu 12:08:37 PM 39.4681 -83.7419 North 164 189 9,100  Level Indianapolis Center
Thu 12:09:25 PM 39.4983 -83.7339 12° North 168 193 9,100 55 Level Indianapolis Center
Thu 12:10:26 PM 39.5436 -83.7261 North 166 191 9,200  Climbing Indianapolis Center
Thu 12:11:28 PM 39.5928 -83.7231 North 170 196 9,100 -48 Descending Indianapolis Center
Thu 12:12:30 PM 39.6461 -83.7228 360° North 166 191 9,100  Level Indianapolis Center
Thu 12:13:41 PM 39.6997 -83.7189 North 167 192 9,100  Level Indianapolis Center
Thu 12:14:33 PM 39.7394 -83.7069 13° North 169 194 9,100 53 Level Indianapolis Center
Thu 12:15:34 PM 39.7886 -83.6983 North 172 198 9,200  Climbing Indianapolis Center
Thu 12:16:36 PM 39.8367 -83.6947 North 175 201 9,100 -48 Descending Indianapolis Center
Thu 12:17:38 PM 39.8850 -83.6961 359° North 167 192 9,100 49 Level Indianapolis Center
Thu 12:18:39 PM 39.9317 -83.6931 North 167 192 9,200  Climbing Indianapolis Center
Thu 12:19:33 PM 39.9742 -83.6894 North 168 193 9,100 -44 Descending Indianapolis Center
Thu 12:20:54 PM 40.0381 -83.6836 North 166 191 9,100  Level Indianapolis Center
Thu 12:21:56 PM 40.0847 -83.6814 North 165 190 9,100  Level Indianapolis Center
Thu 12:22:41 PM 40.1158 -83.6808 North 167 192 9,100  Level Indianapolis Center
Thu 12:23:59 PM 40.1772 -83.6686 North 166 191 9,100 43 Level Indianapolis Center
Thu 12:25:01 PM 40.2242 -83.6578 10° North 168 193 9,200  Climbing Indianapolis Center
Thu 12:26:02 PM 40.2706 -83.6572 North 166 191 9,100 -49 Descending Indianapolis Center
Thu 12:27:04 PM 40.3189 -83.6556 North 168 193 9,100 49 Level Indianapolis Center
Thu 12:28:05 PM 40.3636 -83.6517 North 165 190 9,200 49 Climbing Indianapolis Center
Thu 12:29:07 PM 40.4103 -83.6506 North 166 191 9,200 -49 Level Indianapolis Center
Thu 12:30:08 PM 40.4561 -83.6464 North 164 189 9,100 -49 Descending Indianapolis Center
Thu 12:31:10 PM 40.5031 -83.6422 North 166 191 9,100  Level Indianapolis Center
Thu 12:32:11 PM 40.5594 -83.6408 North 168 193 9,100  Level Indianapolis Center
Thu 12:33:13 PM 40.6078 -83.6372 North 170 196 9,100  Level Indianapolis Center
Thu 12:34:15 PM 40.6553 -83.6344 North 170 196 9,100  Level Indianapolis Center
Thu 12:35:16 PM 40.7039 -83.6308 North 171 197 9,100 49 Level Indianapolis Center
Thu 12:36:18 PM 40.7519 -83.6286 North 171 197 9,200 49 Climbing Indianapolis Center
Thu 12:37:19 PM 40.8000 -83.6256 North 172 198 9,200 -49 Level Indianapolis Center
Thu 12:38:21 PM 40.8453 -83.6206 North 168 193 9,100 -48 Descending Indianapolis Center
Thu 12:39:23 PM 40.8944 -83.6150 North 170 196 9,100  Level Indianapolis Center
Thu 12:40:24 PM 40.9453 -83.6078 North 175 201 9,100  Level Indianapolis Center
Thu 12:41:26 PM 40.9939 -83.6000 North 176 203 9,100  Level Indianapolis Center
Thu 12:42:28 PM 41.0408 -83.6042 356° North 171 197 9,100  Level Indianapolis Center
Thu 12:43:29 PM 41.0953 -83.6072 358° North 168 193 9,100  Level Indianapolis Center
Thu 12:44:31 PM 41.1406 -83.6150 353° North 166 191 9,100 -137 Level Indianapolis Center
Thu 12:45:40 PM 41.1856 -83.6319 344° North 162 186 8,800 -543 Descending Cleveland Center
Thu 12:51:53 PM 41.5100 -83.7389 346° North 192 221 5,100 -571 Descending Cleveland Center
Thu 12:53:12 PM 41.5742 -83.7586 347° North 170 196 4,500 -426 Descending Cleveland Center
Thu 12:54:14 PM 41.6153 -83.7717 347° North 156 180 4,100 -195 Descending Cleveland Center
Thu 12:55:15 PM 41.6608 -83.7881 345° North 168 193 4,100  Level Cleveland Center
Thu 12:56:11 PM 41.7022 -83.8011 347° North 171 197 4,100 51 Level Cleveland Center
Thu 12:57:12 PM 41.7539 -83.8119 351° North 171 197 4,200  Climbing Cleveland Center
Thu 12:58:13 PM 41.8014 -83.8256 348° North 170 196 4,100 -47 Descending Cleveland Center
Thu 12:59:20 PM 41.8533 -83.8394 349° North 170 196 4,100 49 Level Cleveland Center
Thu 01:00:16 PM 41.8967 -83.8500 350° North 171 197 4,200  Climbing Cleveland Center
Thu 01:01:17 PM 41.9442 -83.8692 343° North 171 197 4,100 -47 Descending Cleveland Center
Thu 01:02:24 PM 41.9917 -83.8800 350° North 172 198 4,100  Level Cleveland Center
Thu 01:03:25 PM 42.0442 -83.8686 North 175 201 4,100  Level Cleveland Center
Thu 01:04:26 PM 42.0858 -83.8708 358° North 171 197 4,100  Level Cleveland Center
Thu 01:05:28 PM 42.1142 -83.9031 320° Northwest 145 167 4,100  Level Cleveland Center
Thu 01:06:29 PM 42.1236 -83.8589 74° East 128 147 4,100  Level Cleveland Center
Thu 01:07:25 PM 42.1231 -83.8139 91° East 131 151 4,100  Level Cleveland Center
Thu 01:08:26 PM 42.1139 -83.7603 103° East 131 151 4,100 -295 Level Cleveland Center
Thu 01:09:27 PM 42.1197 -83.7075 82° East 154 177 3,500 -492 Descending Cleveland Center
Thu 01:10:28 PM 42.1456 -83.6778 40° Northeast 122 140 3,100 -197 Descending Cleveland Center
Thu 01:11:29 PM 42.1828 -83.6853 352° North 137 158 3,100 49 Level Cleveland Center
Thu 01:12:30 PM 42.2092 -83.7117 323° Northwest 134 154 3,200 295 Climbing Cleveland Center
Thu 01:13:31 PM 42.1956 -83.7475 243° Southwest 112 129 3,700 443 Climbing Cleveland Center
Thu 01:14:32 PM 42.1761 -83.7775 229° Southwest 105 121 4,100  Climbing Cleveland Center
Thu 01:15:33 PM 42.1517 -83.7508 141° Southeast 128 147 3,700 -443 Descending Cleveland Center
Thu 01:16:34 PM 42.1403 -83.7111 111° Southeast 118 136 3,200 -248 Descending Cleveland Center
Thu 01:17:34 PM 42.1414 -83.6719 88° East 120 138 3,200 -198 Level Cleveland Center
Thu 01:18:35 PM 42.1672 -83.6397 43° Northeast 120 138 2,800 -492 Descending Cleveland Center
Thu 01:19:36 PM 42.1847 -83.6097 52° Northeast 104 120 2,200 -590 Descending Cleveland Center
Thu 01:20:37 PM 42.2064 -83.5800 45° Northeast 101 116 1,600 -541 Descending Cleveland Center
Thu 01:21:38 PM 42.2236 -83.5556 46° Northeast 92 106 1,100 -492 Descending Cleveland Center

Login

Don't have an account? Register now (free) for customized features, flight alerts, and more!